Alaska, Minnesota
Current Conditions -  °F | °C
As of 10:53 AM on Friday 24 Oct 2014 (Local Time) from KBJI Reporting Station
Clear Clear  
Wind Chill: 60°   Ceiling: Unl
Heat Index: 60°   Visibility: 10mi
Dew Point: 41°   Wind: 9mph
Humidity: 50%   Direction: 220°SW
Pressure: 29.78"   Gusts: NA
Location:  47.7369°N, 94.9947°W
Report Text: KBJI 241553Z AUTO 22008KT 10SM CLR 16/05 A2978 RMK AO2 T01570052
Loading
Personal Weather Stations






























Interactive Weather Map
Tropical Storm Tracking
New forecast layout! Learn more

10-Day Weather Forecast

Advertisements
Track Severe Weather on mobile